createdAt,value
2018-11-27T00:00:09.497Z,7.40
2018-11-27T00:02:37.629Z,1.67
2018-11-27T00:05:07.783Z,1.70
2018-11-27T00:07:35.957Z,2.97
2018-11-27T00:10:05.580Z,7.43
2018-11-27T00:12:38.998Z,2.67
2018-11-27T00:15:10.396Z,2.47
2018-11-27T00:17:38.574Z,2.77
2018-11-27T00:20:10.234Z,2.67
2018-11-27T00:22:39.320Z,5.63
2018-11-27T00:25:09.952Z,3.27
2018-11-27T00:27:37.937Z,1.83
2018-11-27T00:30:09.420Z,2.70
2018-11-27T00:32:37.939Z,1.57
2018-11-27T00:35:08.516Z,3.63
2018-11-27T00:37:36.511Z,1.37
2018-11-27T00:40:06.869Z,1.90
2018-11-27T00:42:35.030Z,3.50
2018-11-27T00:45:03.559Z,3.87
2018-11-27T00:47:31.707Z,2.43
2018-11-27T00:49:59.841Z,1.70
2018-11-27T00:52:27.865Z,3.07
2018-11-27T00:54:58.694Z,2.47
2018-11-27T00:57:24.048Z,2.23
2018-11-27T00:59:52.196Z,2.63
2018-11-27T01:02:20.331Z,1.87
2018-11-27T01:04:48.612Z,4.47
2018-11-27T01:07:16.726Z,5.23
2018-11-27T01:09:44.836Z,1.97
2018-11-27T01:12:13.005Z,1.43
2018-11-27T01:14:41.006Z,2.70
2018-11-27T01:17:09.101Z,1.50
2018-11-27T01:19:37.276Z,1.90
2018-11-27T01:22:05.451Z,1.30
2018-11-27T01:24:33.724Z,1.97
2018-11-27T01:27:01.906Z,1.30
2018-11-27T01:29:30.102Z,1.67
2018-11-27T01:31:58.133Z,1.77
2018-11-27T01:34:26.322Z,1.30
2018-11-27T01:36:54.575Z,0.90
2018-11-27T01:39:22.738Z,1.30
2018-11-27T01:41:50.802Z,1.10
2018-11-27T01:44:18.916Z,1.40
2018-11-27T01:46:47.130Z,1.17
2018-11-27T01:49:15.343Z,4.07
2018-11-27T01:51:43.403Z,1.93
2018-11-27T01:54:11.628Z,4.00
2018-11-27T01:56:39.813Z,2.50
2018-11-27T01:59:07.989Z,1.10
2018-11-27T02:01:36.152Z,1.00
2018-11-27T02:04:04.555Z,1.73
2018-11-27T02:06:32.630Z,4.93
2018-11-27T02:09:01.412Z,2.30
2018-11-27T02:11:29.621Z,1.60
2018-11-27T02:13:57.882Z,3.60
2018-11-27T02:16:25.958Z,1.67
2018-11-27T02:18:54.219Z,4.10
2018-11-27T02:21:22.187Z,1.50
2018-11-27T02:23:50.286Z,1.13
2018-11-27T02:26:18.358Z,1.10
2018-11-27T02:28:46.351Z,4.47
2018-11-27T02:31:14.390Z,2.33
2018-11-27T02:33:42.446Z,1.80
2018-11-27T02:36:10.538Z,1.60
2018-11-27T02:38:38.696Z,1.73
2018-11-27T02:41:06.817Z,1.25
2018-11-27T02:43:34.832Z,1.90
2018-11-27T02:46:02.813Z,1.23
2018-11-27T02:48:30.919Z,1.25
2018-11-27T02:50:58.998Z,3.33
2018-11-27T02:53:27.008Z,2.83
2018-11-27T02:55:55.150Z,1.27
2018-11-27T02:58:23.151Z,2.90
2018-11-27T03:00:51.184Z,1.33
2018-11-27T03:03:19.234Z,2.83
2018-11-27T03:05:47.308Z,1.30
2018-11-27T03:08:15.361Z,2.10
2018-11-27T03:10:43.483Z,1.27
2018-11-27T03:13:11.584Z,3.07
2018-11-27T03:15:39.585Z,1.50
2018-11-27T03:18:07.790Z,1.03
2018-11-27T03:20:35.889Z,0.87
2018-11-27T03:23:04.104Z,1.40
2018-11-27T03:25:32.129Z,2.08
2018-11-27T03:28:00.195Z,1.80
2018-11-27T03:30:28.452Z,0.80
2018-11-27T03:32:56.661Z,1.00
2018-11-27T03:35:25.497Z,5.53
2018-11-27T03:37:53.842Z,2.37
2018-11-27T03:40:25.109Z,3.50
2018-11-27T03:42:53.425Z,2.07
2018-11-27T03:45:22.074Z,0.93
2018-11-27T03:47:50.201Z,1.30
2018-11-27T03:50:20.599Z,1.30
2018-11-27T03:52:48.818Z,2.60
2018-11-27T03:55:17.079Z,1.73
2018-11-27T03:57:45.360Z,1.20
2018-11-27T04:00:20.807Z,1.10
2018-11-27T04:02:52.330Z,0.90
2018-11-27T04:05:20.906Z,3.67
2018-11-27T04:07:49.216Z,1.97
2018-11-27T04:10:19.063Z,1.97
2018-11-27T04:12:47.089Z,1.70
2018-11-27T04:15:15.305Z,0.83
2018-11-27T04:17:43.474Z,1.67
2018-11-27T04:20:12.235Z,1.27
2018-11-27T04:22:40.898Z,1.53
2018-11-27T04:25:11.154Z,2.07
2018-11-27T04:27:39.273Z,1.43
2018-11-27T04:30:10.813Z,1.83
2018-11-27T04:32:38.956Z,1.70
2018-11-27T04:35:07.907Z,1.67
2018-11-27T04:37:36.033Z,3.53
2018-11-27T04:40:05.413Z,1.23
2018-11-27T04:42:33.632Z,1.50
2018-11-27T04:45:01.774Z,3.03
2018-11-27T04:47:29.943Z,2.60
2018-11-27T04:49:58.212Z,3.60
2018-11-27T04:52:26.364Z,2.07
2018-11-27T04:54:54.672Z,1.53
2018-11-27T04:57:22.876Z,3.30
2018-11-27T04:59:51.041Z,1.37
2018-11-27T05:02:19.213Z,1.63
2018-11-27T05:04:47.370Z,1.90
2018-11-27T05:07:15.521Z,1.53
2018-11-27T05:09:43.743Z,1.00
2018-11-27T05:12:11.986Z,2.10
2018-11-27T05:14:40.066Z,1.13
2018-11-27T05:17:08.143Z,1.30
2018-11-27T05:19:36.422Z,1.77
2018-11-27T05:22:04.624Z,2.77
2018-11-27T05:24:32.849Z,1.27
2018-11-27T05:27:00.841Z,3.20
2018-11-27T05:29:29.118Z,2.20
2018-11-27T05:31:57.284Z,4.00
2018-11-27T05:34:25.553Z,2.87
2018-11-27T05:36:53.813Z,1.60
2018-11-27T05:39:21.920Z,2.63
2018-11-27T05:41:50.039Z,1.43
2018-11-27T05:44:18.227Z,1.23
2018-11-27T05:46:47.445Z,2.57
2018-11-27T05:49:15.711Z,1.67
2018-11-27T05:51:43.770Z,1.90
2018-11-27T05:54:11.747Z,1.67
2018-11-27T05:56:39.820Z,5.20
2018-11-27T05:59:08.046Z,2.67
2018-11-27T06:01:36.203Z,1.83
2018-11-27T06:04:04.424Z,4.60
2018-11-27T06:06:33.001Z,5.77
2018-11-27T06:09:01.199Z,1.70
2018-11-27T06:11:29.394Z,3.67
2018-11-27T06:13:57.697Z,2.03
2018-11-27T06:16:28.816Z,5.23
2018-11-27T06:18:57.035Z,2.73
2018-11-27T06:21:25.166Z,3.90
2018-11-27T06:23:53.785Z,1.70
2018-11-27T06:26:21.981Z,2.58
2018-11-27T06:28:50.141Z,1.40
2018-11-27T06:31:18.257Z,2.00
2018-11-27T06:33:46.472Z,4.35
2018-11-27T06:36:14.587Z,1.65
2018-11-27T06:38:42.784Z,2.33
2018-11-27T06:41:10.873Z,1.72
2018-11-27T06:43:53.939Z,3.13
2018-11-27T06:46:22.412Z,1.90
2018-11-27T06:48:50.685Z,2.83
2018-11-27T06:51:18.822Z,1.65
2018-11-27T06:53:47.017Z,4.70
2018-11-27T06:56:15.155Z,2.05
2018-11-27T06:58:43.491Z,1.90
2018-11-27T07:01:11.702Z,2.33
2018-11-27T07:03:42.753Z,3.07
2018-11-27T07:06:11.556Z,2.43
2018-11-27T07:08:39.749Z,2.90
2018-11-27T07:11:08.189Z,1.40
2018-11-27T07:13:36.515Z,1.77
2018-11-27T07:16:05.193Z,3.07
2018-11-27T07:18:33.315Z,2.20
2018-11-27T07:21:01.721Z,3.17
2018-11-27T07:23:30.009Z,1.77
2018-11-27T07:25:58.399Z,4.03
2018-11-27T07:28:27.073Z,6.35
2018-11-27T07:30:55.384Z,2.97
2018-11-27T07:33:23.630Z,5.90
2018-11-27T07:35:52.379Z,4.83
2018-11-27T07:38:20.844Z,3.45
2018-11-27T07:40:49.338Z,4.75
2018-11-27T07:43:17.425Z,3.15
2018-11-27T07:45:45.479Z,3.62
2018-11-27T07:48:13.801Z,2.70
2018-11-27T07:50:42.215Z,4.03
2018-11-27T07:53:10.563Z,2.58
2018-11-27T07:55:39.179Z,3.20
2018-11-27T07:58:07.927Z,3.23
2018-11-27T08:00:36.339Z,3.87
2018-11-27T08:03:05.646Z,4.70
2018-11-27T08:05:37.970Z,3.10
2018-11-27T08:08:07.913Z,3.52
2018-11-27T08:10:36.065Z,2.20
2018-11-27T08:13:04.349Z,2.15
2018-11-27T08:15:32.475Z,5.28
2018-11-27T08:18:01.053Z,3.93
2018-11-27T08:20:30.213Z,6.25
2018-11-27T08:22:58.736Z,5.27
2018-11-27T08:25:27.478Z,2.77
2018-11-27T08:27:55.755Z,2.30
2018-11-27T08:30:24.348Z,5.77
2018-11-27T08:32:53.179Z,4.35
2018-11-27T08:35:22.854Z,4.07
2018-11-27T08:37:55.420Z,6.45
2018-11-27T08:40:24.639Z,6.60
2018-11-27T08:42:52.796Z,4.87
2018-11-27T08:45:23.031Z,7.50
2018-11-27T08:47:51.777Z,6.90
2018-11-27T08:50:22.865Z,4.17
2018-11-27T08:52:55.620Z,5.80
2018-11-27T08:55:27.453Z,2.43
2018-11-27T08:57:55.956Z,5.10
2018-11-27T09:00:25.045Z,4.93
2018-11-27T09:02:53.969Z,3.03
2018-11-27T09:05:22.230Z,3.93
2018-11-27T09:07:50.429Z,5.20
2018-11-27T09:10:24.015Z,3.27
2018-11-27T09:12:52.330Z,2.33
2018-11-27T09:15:22.332Z,3.67
2018-11-27T09:18:23.673Z,4.57
2018-11-27T09:20:52.036Z,2.50
2018-11-27T09:23:20.369Z,2.50
2018-11-27T09:25:48.546Z,6.63
2018-11-27T09:28:16.598Z,2.70
2018-11-27T09:30:45.094Z,11.23
2018-11-27T09:33:13.493Z,3.43
2018-11-27T09:35:41.642Z,4.97
2018-11-27T09:38:09.865Z,2.57
2018-11-27T09:40:38.161Z,4.73
2018-11-27T09:43:06.757Z,7.10
2018-11-27T09:45:35.346Z,3.63
2018-11-27T09:48:03.717Z,7.53
2018-11-27T09:50:32.122Z,6.23
2018-11-27T09:53:00.401Z,3.23
2018-11-27T09:55:28.515Z,3.97
2018-11-27T09:58:02.564Z,7.07
2018-11-27T10:00:31.747Z,5.70
2018-11-27T10:03:08.338Z,3.57
2018-11-27T10:05:36.559Z,5.30
2018-11-27T10:08:05.866Z,2.17
2018-11-27T10:10:34.038Z,7.27
2018-11-27T10:13:02.228Z,2.03
2018-11-27T10:15:30.621Z,4.47
2018-11-27T10:20:42.886Z,2.10
2018-11-27T10:23:12.433Z,4.33
2018-11-27T10:25:41.079Z,7.07
2018-11-27T10:28:09.294Z,4.70
2018-11-27T10:30:37.609Z,7.47
2018-11-27T10:33:07.645Z,10.20
2018-11-27T10:35:44.150Z,7.20
2018-11-27T10:38:12.368Z,4.07
2018-11-27T10:40:40.605Z,6.90
2018-11-27T10:43:09.225Z,3.33
2018-11-27T10:45:37.591Z,4.33
2018-11-27T10:48:06.848Z,3.63
2018-11-27T10:50:35.134Z,5.17
2018-11-27T10:53:03.696Z,2.90
2018-11-27T10:55:33.007Z,4.07
2018-11-27T10:58:01.262Z,4.20
2018-11-27T11:00:34.799Z,2.83
2018-11-27T11:03:08.319Z,4.43
2018-11-27T11:05:37.362Z,5.80
2018-11-27T11:08:06.322Z,2.73
2018-11-27T11:10:35.321Z,3.37
2018-11-27T11:13:03.489Z,4.83
2018-11-27T11:15:31.755Z,3.27
2018-11-27T11:17:59.966Z,18.27
2018-11-27T11:20:28.090Z,7.50
2018-11-27T11:22:56.769Z,9.80
2018-11-27T11:25:25.250Z,3.10
2018-11-27T11:27:57.731Z,5.20
2018-11-27T11:30:26.002Z,9.43
2018-11-27T11:32:54.217Z,4.20
2018-11-27T11:35:22.729Z,3.30
2018-11-27T11:37:50.878Z,4.47
2018-11-27T11:40:20.617Z,4.30
2018-11-27T11:42:50.496Z,8.40
2018-11-27T11:45:19.091Z,10.00
2018-11-27T11:47:47.315Z,6.80
2018-11-27T11:50:24.824Z,13.93
2018-11-27T11:54:04.501Z,7.67
2018-11-27T11:56:32.684Z,13.27
2018-11-27T11:59:00.872Z,5.17
2018-11-27T12:01:29.049Z,4.17
2018-11-27T12:03:57.465Z,3.87
2018-11-27T12:06:25.651Z,3.57
2018-11-27T12:08:54.988Z,7.37
2018-11-27T12:11:23.525Z,5.47
2018-11-27T12:13:51.582Z,3.53
2018-11-27T12:16:19.667Z,5.63
2018-11-27T12:18:47.966Z,4.40
2018-11-27T12:21:16.253Z,4.87
2018-11-27T12:23:44.627Z,6.03
2018-11-27T12:26:12.954Z,3.67
2018-11-27T12:28:41.471Z,8.30
2018-11-27T12:31:10.215Z,6.10
2018-11-27T12:33:38.334Z,2.40
2018-11-27T12:36:07.020Z,4.23
2018-11-27T12:38:35.244Z,2.83
2018-11-27T12:41:03.533Z,5.97
2018-11-27T12:43:32.044Z,3.80
2018-11-27T12:46:00.463Z,4.03
2018-11-27T12:48:28.658Z,3.33
2018-11-27T12:50:57.192Z,4.93
2018-11-27T12:53:25.491Z,3.77
2018-11-27T12:55:53.894Z,2.73
2018-11-27T12:58:22.339Z,7.93
2018-11-27T13:00:51.062Z,2.93
2018-11-27T13:03:19.291Z,4.97
2018-11-27T13:05:48.740Z,4.17
2018-11-27T13:08:24.235Z,9.33
2018-11-27T13:10:53.470Z,2.07
2018-11-27T13:13:21.721Z,4.60
2018-11-27T13:15:49.814Z,3.57
2018-11-27T13:18:18.307Z,3.27
2018-11-27T13:20:46.427Z,2.57
2018-11-27T13:23:15.330Z,3.37
2018-11-27T13:25:43.517Z,4.83
2018-11-27T13:28:13.210Z,5.10
2018-11-27T13:30:49.681Z,2.93
2018-11-27T13:33:22.758Z,7.00
2018-11-27T13:35:50.925Z,4.27
2018-11-27T13:38:19.135Z,5.20
2018-11-27T13:40:47.494Z,8.37
2018-11-27T13:43:24.578Z,2.27
2018-11-27T13:45:54.018Z,2.43
2018-11-27T13:48:23.180Z,4.10
2018-11-27T13:50:51.386Z,9.93
2018-11-27T13:53:19.761Z,7.97
2018-11-27T13:55:47.860Z,5.23
2018-11-27T13:58:16.026Z,6.87
2018-11-27T14:00:44.259Z,5.90
2018-11-27T14:03:12.461Z,2.33
2018-11-27T14:05:40.871Z,6.33
2018-11-27T14:08:09.858Z,7.80
2018-11-27T14:10:39.253Z,5.37
2018-11-27T14:13:08.159Z,7.00
2018-11-27T14:15:37.187Z,4.70
2018-11-27T14:18:06.013Z,6.27
2018-11-27T14:20:34.235Z,4.97
2018-11-27T14:23:02.484Z,3.17
2018-11-27T14:25:31.151Z,6.83
2018-11-27T14:30:38.051Z,6.77
2018-11-27T14:33:06.627Z,4.50
2018-11-27T14:35:34.878Z,5.57
2018-11-27T14:38:03.272Z,5.17
2018-11-27T14:40:31.366Z,4.33
2018-11-27T14:42:59.562Z,4.10
2018-11-27T14:45:28.075Z,8.53
2018-11-27T14:47:58.612Z,3.60
2018-11-27T14:50:27.233Z,1.87
2018-11-27T14:52:57.399Z,5.07
2018-11-27T14:55:29.363Z,6.90
2018-11-27T14:57:57.529Z,3.80
2018-11-27T15:00:26.462Z,3.60
2018-11-27T15:02:54.638Z,4.47
2018-11-27T15:05:40.087Z,2.47
2018-11-27T15:08:10.704Z,7.93
2018-11-27T15:10:39.149Z,7.90
2018-11-27T15:13:08.612Z,4.43
2018-11-27T15:15:37.557Z,3.47
2018-11-27T15:18:06.824Z,5.87
2018-11-27T15:20:36.259Z,2.80
2018-11-27T15:23:04.669Z,6.00
2018-11-27T15:25:32.976Z,2.33
2018-11-27T15:28:02.076Z,2.57
2018-11-27T15:30:32.282Z,3.03
2018-11-27T15:33:01.507Z,4.73
2018-11-27T15:35:29.751Z,5.47
2018-11-27T15:37:59.358Z,4.20
2018-11-27T15:40:28.762Z,3.63
2018-11-27T15:42:57.859Z,3.30
2018-11-27T15:45:27.459Z,3.93
2018-11-27T15:47:56.513Z,3.25
2018-11-27T15:50:25.222Z,4.92
2018-11-27T15:52:53.425Z,4.20
2018-11-27T15:55:24.938Z,3.53
2018-11-27T15:57:54.803Z,4.50
2018-11-27T16:00:22.805Z,2.08
2018-11-27T16:02:51.173Z,5.73
2018-11-27T16:05:19.695Z,2.65
2018-11-27T16:07:48.866Z,4.10
2018-11-27T16:10:18.086Z,3.83
2018-11-27T16:12:46.661Z,3.27
2018-11-27T16:15:17.385Z,5.33
2018-11-27T16:17:46.080Z,3.57
2018-11-27T16:20:15.420Z,4.28
2018-11-27T16:22:44.895Z,6.83
2018-11-27T16:25:15.534Z,7.65
2018-11-27T16:27:43.722Z,6.40
2018-11-27T16:30:15.722Z,9.35
2018-11-27T16:32:43.977Z,10.82
2018-11-27T16:35:13.201Z,7.92
2018-11-27T16:37:42.747Z,4.33
2018-11-27T16:40:13.037Z,9.23
2018-11-27T16:42:42.540Z,4.57
2018-11-27T16:45:15.074Z,5.22
2018-11-27T16:47:43.692Z,7.15
2018-11-27T16:50:14.051Z,6.65
2018-11-27T16:52:42.540Z,9.03
2018-11-27T16:55:13.404Z,7.00
2018-11-27T16:57:41.988Z,11.83
2018-11-27T17:00:23.162Z,5.60
2018-11-27T17:02:52.505Z,4.83
2018-11-27T17:05:21.071Z,3.40
2018-11-27T17:07:50.530Z,13.68
2018-11-27T17:10:19.560Z,10.58
2018-11-27T17:12:50.299Z,6.75
2018-11-27T17:15:19.848Z,6.70
2018-11-27T17:17:48.119Z,5.30
2018-11-27T17:20:23.043Z,11.65
2018-11-27T17:22:51.590Z,9.15
2018-11-27T17:25:19.837Z,10.48
2018-11-27T17:27:48.598Z,10.63
2018-11-27T17:30:20.147Z,5.62
2018-11-27T17:32:48.666Z,3.85
2018-11-27T17:35:16.732Z,9.10
2018-11-27T17:37:45.141Z,5.22
2018-11-27T17:40:13.908Z,8.35
2018-11-27T17:42:42.143Z,9.53
2018-11-27T17:45:12.590Z,8.27
2018-11-27T17:47:40.786Z,4.45
2018-11-27T17:50:11.120Z,2.47
2018-11-27T17:52:39.151Z,7.37
2018-11-27T17:55:08.646Z,8.67
2018-11-27T18:00:19.018Z,5.83
2018-11-27T18:02:50.497Z,7.57
2018-11-27T18:05:18.871Z,8.33
2018-11-27T18:07:47.078Z,10.53
2018-11-27T18:10:15.246Z,4.13
2018-11-27T18:12:43.474Z,6.25
2018-11-27T18:15:15.919Z,7.05
2018-11-27T18:17:44.105Z,8.67
2018-11-27T18:20:12.549Z,6.27
2018-11-27T18:22:41.048Z,7.93
2018-11-27T18:25:11.908Z,4.43
2018-11-27T18:27:40.522Z,9.77
2018-11-27T18:30:15.362Z,10.82
2018-11-27T18:32:43.637Z,8.80
2018-11-27T18:35:14.391Z,7.62
2018-11-27T18:37:42.658Z,10.53
2018-11-27T18:40:11.867Z,9.03
2018-11-27T18:42:41.699Z,7.43
2018-11-27T18:45:20.722Z,5.60
2018-11-27T18:47:48.784Z,5.08
2018-11-27T18:50:17.166Z,3.30
2018-11-27T18:52:45.518Z,8.20
2018-11-27T18:55:14.645Z,5.60
2018-11-27T18:57:43.585Z,6.28
2018-11-27T19:00:19.755Z,8.05
2018-11-27T19:02:48.047Z,7.08
2018-11-27T19:05:16.290Z,10.72
2018-11-27T19:07:44.455Z,5.55
2018-11-27T19:10:16.819Z,7.37
2018-11-27T19:12:45.631Z,7.33
2018-11-27T19:15:19.396Z,8.00
2018-11-27T19:17:49.088Z,5.03
2018-11-27T19:20:17.652Z,6.60
2018-11-27T19:22:47.022Z,5.37
2018-11-27T19:25:16.913Z,8.10
2018-11-27T19:27:46.274Z,4.27
2018-11-27T19:30:17.361Z,7.40
2018-11-27T19:32:45.689Z,5.85
2018-11-27T19:35:15.191Z,6.43
2018-11-27T19:37:44.719Z,5.00
2018-11-27T19:40:14.119Z,15.03
2018-11-27T19:42:42.423Z,8.20
2018-11-27T19:45:13.081Z,8.30
2018-11-27T19:47:41.582Z,2.93
2018-11-27T19:50:11.909Z,11.37
2018-11-27T19:52:40.711Z,4.83
2018-11-27T19:55:11.398Z,6.00
2018-11-27T19:57:39.627Z,6.83
2018-11-27T20:00:14.139Z,4.17
2018-11-27T20:02:42.346Z,3.33
2018-11-27T20:05:11.835Z,6.00
2018-11-27T20:07:39.922Z,7.17
2018-11-27T20:10:10.327Z,10.20
2018-11-27T20:12:38.691Z,7.03
2018-11-27T20:15:10.140Z,8.10
2018-11-27T20:17:38.277Z,11.83
2018-11-27T20:20:08.712Z,7.73
2018-11-27T20:22:36.895Z,9.90
2018-11-27T20:25:06.725Z,9.48
2018-11-27T20:27:34.880Z,6.75
2018-11-27T20:30:03.428Z,7.12
2018-11-27T20:32:33.955Z,4.83
2018-11-27T20:37:41.494Z,7.47
2018-11-27T20:40:17.677Z,6.20
2018-11-27T20:42:45.778Z,9.03
2018-11-27T20:45:19.629Z,6.70
2018-11-27T20:47:48.207Z,5.03
2018-11-27T20:50:17.510Z,7.90
2018-11-27T20:52:45.741Z,14.07
2018-11-27T20:55:14.660Z,12.50
2018-11-27T20:57:45.770Z,15.33
2018-11-27T21:00:20.165Z,12.00
2018-11-27T21:02:48.228Z,12.83
2018-11-27T21:05:16.434Z,15.50
2018-11-27T21:07:44.961Z,13.80
2018-11-27T21:10:14.066Z,9.18
2018-11-27T21:12:42.895Z,8.87
2018-11-27T21:15:12.961Z,6.97
2018-11-27T21:17:41.249Z,9.23
2018-11-27T21:20:12.055Z,8.97
2018-11-27T21:22:40.526Z,9.80
2018-11-27T21:25:15.273Z,9.00
2018-11-27T21:27:47.759Z,15.33
2018-11-27T21:30:18.759Z,6.13
2018-11-27T21:32:47.659Z,10.37
2018-11-27T21:35:17.434Z,10.47
2018-11-27T21:37:48.671Z,13.50
2018-11-27T21:40:18.532Z,11.53
2018-11-27T21:42:46.635Z,9.60
2018-11-27T21:45:18.971Z,8.40
2018-11-27T21:47:48.050Z,14.47
2018-11-27T21:50:19.558Z,19.23
2018-11-27T21:52:47.657Z,16.93
2018-11-27T21:55:16.119Z,15.43
2018-11-27T21:57:45.121Z,14.17
2018-11-27T22:00:22.623Z,13.32
2018-11-27T22:02:51.202Z,18.23
2018-11-27T22:05:19.617Z,21.27
2018-11-27T22:07:48.911Z,16.30
2018-11-27T22:10:20.675Z,15.33
2018-11-27T22:12:51.070Z,8.50
2018-11-27T22:15:26.666Z,7.17
2018-11-27T22:17:54.869Z,8.10
2018-11-27T22:20:23.128Z,7.37
2018-11-27T22:22:51.124Z,5.03
2018-11-27T22:25:19.547Z,6.33
2018-11-27T22:27:48.454Z,4.10
2018-11-27T22:30:18.097Z,5.67
2018-11-27T22:32:48.112Z,4.60
2018-11-27T22:35:16.288Z,4.73
2018-11-27T22:37:45.017Z,7.62
2018-11-27T22:40:16.310Z,5.83
2018-11-27T22:42:45.561Z,8.50
2018-11-27T22:45:17.726Z,3.50
2018-11-27T22:47:45.942Z,5.77
2018-11-27T22:50:19.441Z,7.10
2018-11-27T22:52:48.043Z,3.33
2018-11-27T22:55:16.186Z,2.92
2018-11-27T22:57:44.900Z,6.08
2018-11-27T23:00:23.511Z,5.33
2018-11-27T23:02:52.412Z,2.50
2018-11-27T23:05:21.523Z,3.27
2018-11-27T23:07:50.033Z,3.10
2018-11-27T23:10:18.363Z,3.37
2018-11-27T23:12:46.747Z,2.77
2018-11-27T23:15:16.975Z,1.90
2018-11-27T23:17:45.906Z,4.00
2018-11-27T23:20:14.994Z,4.12
2018-11-27T23:22:43.214Z,7.67
2018-11-27T23:25:14.237Z,4.83
2018-11-27T23:27:42.437Z,3.17
2018-11-27T23:30:13.089Z,4.20
2018-11-27T23:32:41.310Z,7.03
2018-11-27T23:35:09.549Z,6.60
2018-11-27T23:37:37.953Z,9.80
2018-11-27T23:40:08.779Z,4.62
2018-11-27T23:42:37.205Z,3.98
2018-11-27T23:45:08.171Z,2.75
2018-11-27T23:47:36.202Z,4.75
2018-11-27T23:50:05.139Z,2.62
2018-11-27T23:52:33.275Z,5.30
2018-11-27T23:55:01.250Z,2.92
2018-11-27T23:57:29.351Z,5.70
2018-11-27T23:59:57.333Z,4.12
